sensor_id;sensor_type;location;lat;lon;timestamp;pressure;altitude;pressure_sealevel;temperature;humidity
61618;BME280;47518;51.776;9.370;2023-02-23T00:00:00;99897.63;;;8.40;84.48
61618;BME280;47518;51.776;9.370;2023-02-23T00:02:32;99897.63;;;8.40;84.60
61618;BME280;47518;51.776;9.370;2023-02-23T00:04:57;99892.75;;;8.03;84.98
61618;BME280;47518;51.776;9.370;2023-02-23T00:07:23;99897.47;;;8.17;85.26
61618;BME280;47518;51.776;9.370;2023-02-23T00:09:48;99895.78;;;8.24;84.55
61618;BME280;47518;51.776;9.370;2023-02-23T00:12:14;99893.56;;;8.28;84.72
61618;BME280;47518;51.776;9.370;2023-02-23T00:14:41;99896.94;;;8.22;84.56
61618;BME280;47518;51.776;9.370;2023-02-23T00:17:08;99891.56;;;8.13;84.22
61618;BME280;47518;51.776;9.370;2023-02-23T00:19:38;99903.06;;;8.15;84.33
61618;BME280;47518;51.776;9.370;2023-02-23T00:22:03;99898.53;;;8.00;84.68
61618;BME280;47518;51.776;9.370;2023-02-23T00:24:28;99895.97;;;7.90;84.82
61618;BME280;47518;51.776;9.370;2023-02-23T00:26:54;99899.69;;;7.81;84.70
61618;BME280;47518;51.776;9.370;2023-02-23T00:29:21;99896.66;;;7.84;85.26
61618;BME280;47518;51.776;9.370;2023-02-23T00:31:48;99893.28;;;7.82;85.52
61618;BME280;47518;51.776;9.370;2023-02-23T00:34:15;99895.13;;;7.73;86.45
61618;BME280;47518;51.776;9.370;2023-02-23T00:36:45;99893.09;;;7.83;86.20
61618;BME280;47518;51.776;9.370;2023-02-23T00:39:13;99888.88;;;7.89;85.77
61618;BME280;47518;51.776;9.370;2023-02-23T00:41:47;99892.28;;;7.99;85.57
61618;BME280;47518;51.776;9.370;2023-02-23T00:44:13;99893.56;;;8.28;84.54
61618;BME280;47518;51.776;9.370;2023-02-23T00:46:39;99890.88;;;8.36;83.15
61618;BME280;47518;51.776;9.370;2023-02-23T00:49:06;99898.66;;;8.23;84.03
61618;BME280;47518;51.776;9.370;2023-02-23T00:51:31;99899.00;;;7.95;85.88
61618;BME280;47518;51.776;9.370;2023-02-23T00:53:58;99903.06;;;8.15;84.82
61618;BME280;47518;51.776;9.370;2023-02-23T00:56:25;99905.47;;;8.10;84.65
61618;BME280;47518;51.776;9.370;2023-02-23T00:58:50;99905.63;;;8.01;85.00
61618;BME280;47518;51.776;9.370;2023-02-23T01:01:16;99910.16;;;8.08;84.61
61618;BME280;47518;51.776;9.370;2023-02-23T01:03:42;99904.09;;;8.14;85.95
61618;BME280;47518;51.776;9.370;2023-02-23T01:06:10;99910.03;;;8.02;86.16
61618;BME280;47518;51.776;9.370;2023-02-23T01:08:39;99914.22;;;8.29;83.91
61618;BME280;47518;51.776;9.370;2023-02-23T01:11:06;99915.41;;;8.26;84.87
61618;BME280;47518;51.776;9.370;2023-02-23T01:13:34;99918.63;;;8.22;85.59
61618;BME280;47518;51.776;9.370;2023-02-23T01:15:59;99910.66;;;8.28;84.55
61618;BME280;47518;51.776;9.370;2023-02-23T01:18:26;99926.22;;;8.59;82.83
61618;BME280;47518;51.776;9.370;2023-02-23T01:20:51;99909.81;;;8.44;83.20
61618;BME280;47518;51.776;9.370;2023-02-23T01:23:18;99919.31;;;8.40;84.63
61618;BME280;47518;51.776;9.370;2023-02-23T01:25:44;99915.88;;;8.54;83.16
61618;BME280;47518;51.776;9.370;2023-02-23T01:28:10;99916.41;;;8.58;83.01
61618;BME280;47518;51.776;9.370;2023-02-23T01:30:39;99917.38;;;8.73;82.90
61618;BME280;47518;51.776;9.370;2023-02-23T01:33:04;99913.81;;;8.72;83.22
61618;BME280;47518;51.776;9.370;2023-02-23T01:35:31;99907.94;;;8.44;84.06
61618;BME280;47518;51.776;9.370;2023-02-23T01:37:57;99909.06;;;8.74;83.60
61618;BME280;47518;51.776;9.370;2023-02-23T01:40:24;99913.44;;;8.84;81.62
61618;BME280;47518;51.776;9.370;2023-02-23T01:43:11;99908.53;;;8.79;81.58
61618;BME280;47518;51.776;9.370;2023-02-23T01:45:39;99911.97;;;8.65;82.93
61618;BME280;47518;51.776;9.370;2023-02-23T01:48:12;99912.94;;;8.80;81.88
61618;BME280;47518;51.776;9.370;2023-02-23T01:51:00;99913.09;;;8.78;82.38
61618;BME280;47518;51.776;9.370;2023-02-23T01:53:30;99914.69;;;8.65;82.86
61618;BME280;47518;51.776;9.370;2023-02-23T01:56:04;99916.53;;;8.64;84.28
61618;BME280;47518;51.776;9.370;2023-02-23T01:58:37;99911.28;;;8.71;84.45
61618;BME280;47518;51.776;9.370;2023-02-23T02:01:03;99902.63;;;8.75;84.54
61618;BME280;47518;51.776;9.370;2023-02-23T02:03:35;99905.81;;;8.79;84.43
61618;BME280;47518;51.776;9.370;2023-02-23T02:06:01;99903.06;;;8.95;85.00
61618;BME280;47518;51.776;9.370;2023-02-23T02:08:31;99907.00;;;8.85;84.85
61618;BME280;47518;51.776;9.370;2023-02-23T02:10:57;99908.19;;;8.82;85.77
61618;BME280;47518;51.776;9.370;2023-02-23T02:13:27;99908.03;;;8.75;84.72
61618;BME280;47518;51.776;9.370;2023-02-23T02:16:21;99899.66;;;8.30;85.77
61618;BME280;47518;51.776;9.370;2023-02-23T02:21:55;99899.03;;;8.03;89.00
61618;BME280;47518;51.776;9.370;2023-02-23T02:40:51;99904.53;;;9.06;83.70
61618;BME280;47518;51.776;9.370;2023-02-23T02:43:41;99897.72;;;9.10;83.31
61618;BME280;47518;51.776;9.370;2023-02-23T02:54:47;99876.28;;;9.23;84.15
61618;BME280;47518;51.776;9.370;2023-02-23T02:57:12;99877.63;;;9.27;83.87
61618;BME280;47518;51.776;9.370;2023-02-23T02:59:44;99881.72;;;9.23;85.53
61618;BME280;47518;51.776;9.370;2023-02-23T03:02:32;99884.69;;;9.36;85.20
61618;BME280;47518;51.776;9.370;2023-02-23T03:05:21;99875.84;;;9.43;83.76
61618;BME280;47518;51.776;9.370;2023-02-23T03:11:07;99872.75;;;9.46;83.55
61618;BME280;47518;51.776;9.370;2023-02-23T03:23:00;99880.78;;;9.39;83.22
61618;BME280;47518;51.776;9.370;2023-02-23T03:25:55;99884.75;;;9.28;83.19
61618;BME280;47518;51.776;9.370;2023-02-23T03:31:44;99876.72;;;9.35;83.38
61618;BME280;47518;51.776;9.370;2023-02-23T03:34:40;99884.16;;;9.41;83.13
61618;BME280;47518;51.776;9.370;2023-02-23T03:37:36;99876.66;;;9.20;83.55
61618;BME280;47518;51.776;9.370;2023-02-23T03:40:28;99877.09;;;9.01;84.09
61618;BME280;47518;51.776;9.370;2023-02-23T03:43:21;99884.78;;;9.20;83.63
61618;BME280;47518;51.776;9.370;2023-02-23T03:46:09;99879.84;;;9.24;84.36
61618;BME280;47518;51.776;9.370;2023-02-23T03:48:59;99877.22;;;9.39;83.25
61618;BME280;47518;51.776;9.370;2023-02-23T03:51:49;99881.22;;;9.20;83.94
61618;BME280;47518;51.776;9.370;2023-02-23T03:54:40;99880.75;;;9.16;83.99
61618;BME280;47518;51.776;9.370;2023-02-23T03:57:27;99895.22;;;9.00;85.24
61618;BME280;47518;51.776;9.370;2023-02-23T04:00:20;99888.69;;;8.87;85.46
61618;BME280;47518;51.776;9.370;2023-02-23T04:03:08;99887.19;;;8.76;86.66
61618;BME280;47518;51.776;9.370;2023-02-23T04:05:57;99881.19;;;8.97;86.14
61618;BME280;47518;51.776;9.370;2023-02-23T04:08:42;99893.03;;;9.04;84.90
61618;BME280;47518;51.776;9.370;2023-02-23T04:11:38;99880.94;;;9.15;85.53
61618;BME280;47518;51.776;9.370;2023-02-23T04:14:32;99881.13;;;9.36;85.40
61618;BME280;47518;51.776;9.370;2023-02-23T04:17:18;99892.31;;;9.41;84.06
61618;BME280;47518;51.776;9.370;2023-02-23T04:19:49;99889.88;;;9.46;83.99
61618;BME280;47518;51.776;9.370;2023-02-23T04:22:14;99884.81;;;9.43;84.34
61618;BME280;47518;51.776;9.370;2023-02-23T04:24:40;99883.34;;;9.32;86.29
61618;BME280;47518;51.776;9.370;2023-02-23T04:27:05;99874.75;;;9.29;85.82
61618;BME280;47518;51.776;9.370;2023-02-23T04:29:30;99877.03;;;9.17;86.81
61618;BME280;47518;51.776;9.370;2023-02-23T04:31:56;99876.13;;;8.94;86.54
61618;BME280;47518;51.776;9.370;2023-02-23T04:34:21;99876.44;;;8.99;87.51
61618;BME280;47518;51.776;9.370;2023-02-23T04:36:47;99885.91;;;9.03;87.25
61618;BME280;47518;51.776;9.370;2023-02-23T04:39:15;99884.59;;;9.22;86.27
61618;BME280;47518;51.776;9.370;2023-02-23T04:41:40;99891.19;;;9.27;85.55
61618;BME280;47518;51.776;9.370;2023-02-23T04:44:06;99894.81;;;9.43;84.54
61618;BME280;47518;51.776;9.370;2023-02-23T04:46:31;99900.22;;;9.51;84.40
61618;BME280;47518;51.776;9.370;2023-02-23T04:48:56;99889.88;;;9.46;84.97
61618;BME280;47518;51.776;9.370;2023-02-23T04:51:21;99893.69;;;9.60;84.22
61618;BME280;47518;51.776;9.370;2023-02-23T04:53:47;99885.53;;;9.60;84.91
61618;BME280;47518;51.776;9.370;2023-02-23T04:56:12;99880.09;;;9.60;84.78
61618;BME280;47518;51.776;9.370;2023-02-23T04:58:37;99885.53;;;9.60;84.35
61618;BME280;47518;51.776;9.370;2023-02-23T05:01:06;99873.69;;;9.61;84.48
61618;BME280;47518;51.776;9.370;2023-02-23T05:03:31;99880.00;;;9.76;82.76
61618;BME280;47518;51.776;9.370;2023-02-23T05:05:56;99876.44;;;9.76;83.56
61618;BME280;47518;51.776;9.370;2023-02-23T05:08:22;99885.38;;;9.61;83.93
61618;BME280;47518;51.776;9.370;2023-02-23T05:10:47;99871.81;;;9.39;84.31
61618;BME280;47518;51.776;9.370;2023-02-23T05:13:12;99883.50;;;9.39;84.35
61618;BME280;47518;51.776;9.370;2023-02-23T05:15:37;99868.69;;;9.50;84.23
61618;BME280;47518;51.776;9.370;2023-02-23T05:18:03;99874.59;;;9.22;84.31
61618;BME280;47518;51.776;9.370;2023-02-23T05:20:29;99877.63;;;9.27;84.87
61618;BME280;47518;51.776;9.370;2023-02-23T05:22:54;99875.03;;;9.34;85.56
61618;BME280;47518;51.776;9.370;2023-02-23T05:25:19;99872.81;;;9.38;85.10
61618;BME280;47518;51.776;9.370;2023-02-23T05:27:45;99876.28;;;9.23;85.47
61618;BME280;47518;51.776;9.370;2023-02-23T05:30:10;99875.06;;;9.26;85.64
61618;BME280;47518;51.776;9.370;2023-02-23T05:32:36;99881.91;;;9.45;84.69
61618;BME280;47518;51.776;9.370;2023-02-23T05:35:01;99882.94;;;9.44;85.30
61618;BME280;47518;51.776;9.370;2023-02-23T05:37:27;99881.56;;;9.48;84.06
61618;BME280;47518;51.776;9.370;2023-02-23T05:39:52;99875.78;;;9.51;84.25
61618;BME280;47518;51.776;9.370;2023-02-23T05:42:18;99875.78;;;9.51;84.53
61618;BME280;47518;51.776;9.370;2023-02-23T05:44:43;99889.59;;;9.41;84.80
61618;BME280;47518;51.776;9.370;2023-02-23T05:47:09;99882.03;;;9.28;84.45
61618;BME280;47518;51.776;9.370;2023-02-23T05:49:35;99884.97;;;9.19;85.58
61618;BME280;47518;51.776;9.370;2023-02-23T05:52:00;99881.81;;;9.38;85.15
61618;BME280;47518;51.776;9.370;2023-02-23T05:54:25;99878.22;;;9.38;85.30
61618;BME280;47518;51.776;9.370;2023-02-23T05:56:51;99883.44;;;9.47;84.90
61618;BME280;47518;51.776;9.370;2023-02-23T05:59:16;99881.44;;;9.41;85.96
61618;BME280;47518;51.776;9.370;2023-02-23T06:01:41;99884.34;;;9.62;85.47
61618;BME280;47518;51.776;9.370;2023-02-23T06:04:07;99880.81;;;9.62;85.37
61618;BME280;47518;51.776;9.370;2023-02-23T06:06:33;99884.81;;;9.66;84.99
61618;BME280;47518;51.776;9.370;2023-02-23T06:08:59;99880.63;;;9.63;85.82
61618;BME280;47518;51.776;9.370;2023-02-23T06:35:32;99903.50;;;9.07;91.85
61618;BME280;47518;51.776;9.370;2023-02-23T06:37:59;99902.94;;;9.20;90.61
61618;BME280;47518;51.776;9.370;2023-02-23T06:40:25;99903.38;;;9.31;89.28
61618;BME280;47518;51.776;9.370;2023-02-23T06:42:50;99908.63;;;9.33;88.74
61618;BME280;47518;51.776;9.370;2023-02-23T06:45:16;99896.97;;;9.24;89.14
61618;BME280;47518;51.776;9.370;2023-02-23T06:47:43;99902.19;;;9.26;89.50
61618;BME280;47518;51.776;9.370;2023-02-23T06:50:09;99913.97;;;9.49;87.38
61618;BME280;47518;51.776;9.370;2023-02-23T06:52:59;99915.47;;;9.52;87.55
61618;BME280;47518;51.776;9.370;2023-02-23T06:55:40;99918.81;;;9.31;88.51
61618;BME280;47518;51.776;9.370;2023-02-23T06:58:05;99917.91;;;9.07;88.74
61618;BME280;47518;51.776;9.370;2023-02-23T07:00:32;99923.16;;;9.09;89.96
61618;BME280;47518;51.776;9.370;2023-02-23T07:02:57;99927.44;;;9.03;90.20
61618;BME280;47518;51.776;9.370;2023-02-23T07:05:24;99925.03;;;9.00;91.55
61618;BME280;47518;51.776;9.370;2023-02-23T07:07:49;99932.28;;;9.16;89.91
61618;BME280;47518;51.776;9.370;2023-02-23T07:10:16;99929.91;;;9.44;89.25
61618;BME280;47518;51.776;9.370;2023-02-23T07:12:42;99938.69;;;9.54;88.58
61618;BME280;47518;51.776;9.370;2023-02-23T07:15:08;99932.59;;;9.52;88.65
61618;BME280;47518;51.776;9.370;2023-02-23T07:17:34;99943.81;;;9.49;89.70
61618;BME280;47518;51.776;9.370;2023-02-23T07:20:00;99938.53;;;9.48;89.65
61618;BME280;47518;51.776;9.370;2023-02-23T07:22:25;99950.19;;;9.56;88.86
61618;BME280;47518;51.776;9.370;2023-02-23T07:25:00;99947.53;;;9.48;89.40
61618;BME280;47518;51.776;9.370;2023-02-23T07:27:25;99954.13;;;9.54;88.92
61618;BME280;47518;51.776;9.370;2023-02-23T07:29:52;99953.09;;;9.55;88.57
61618;BME280;47518;51.776;9.370;2023-02-23T07:32:17;99959.19;;;9.57;89.02
61618;BME280;47518;51.776;9.370;2023-02-23T07:34:42;99955.53;;;9.42;90.37
61618;BME280;47518;51.776;9.370;2023-02-23T07:37:08;99955.56;;;9.33;90.26
61618;BME280;47518;51.776;9.370;2023-02-23T07:39:33;99958.31;;;9.25;92.08
61618;BME280;47518;51.776;9.370;2023-02-23T07:41:58;99962.66;;;9.43;91.34
61618;BME280;47518;51.776;9.370;2023-02-23T07:44:24;99962.91;;;9.56;90.27
61618;BME280;47518;51.776;9.370;2023-02-23T07:46:49;99965.34;;;9.51;90.42
61618;BME280;47518;51.776;9.370;2023-02-23T07:49:14;99965.84;;;9.46;91.11
61618;BME280;47518;51.776;9.370;2023-02-23T07:51:40;99969.38;;;9.55;89.96
61618;BME280;47518;51.776;9.370;2023-02-23T07:54:05;99967.34;;;9.49;89.72
61618;BME280;47518;51.776;9.370;2023-02-23T07:56:31;99977.81;;;9.60;89.46
61618;BME280;47518;51.776;9.370;2023-02-23T07:58:57;99972.72;;;9.65;89.69
61618;BME280;47518;51.776;9.370;2023-02-23T08:01:22;99968.69;;;9.61;89.69
61618;BME280;47518;51.776;9.370;2023-02-23T08:03:48;99970.88;;;9.57;89.63
61618;BME280;47518;51.776;9.370;2023-02-23T08:06:15;99978.19;;;9.57;90.88
61618;BME280;47518;51.776;9.370;2023-02-23T08:08:41;99974.81;;;9.55;91.45
61618;BME280;47518;51.776;9.370;2023-02-23T08:11:06;99973.34;;;9.44;91.00
61618;BME280;47518;51.776;9.370;2023-02-23T08:13:32;99981.63;;;9.51;92.64
61618;BME280;47518;51.776;9.370;2023-02-23T08:15:58;99984.72;;;9.40;91.55
61618;BME280;47518;51.776;9.370;2023-02-23T08:18:24;99980.44;;;9.45;92.23
61618;BME280;47518;51.776;9.370;2023-02-23T08:20:49;99982.13;;;9.46;92.39
61618;BME280;47518;51.776;9.370;2023-02-23T08:23:14;99980.25;;;9.47;92.76
61618;BME280;47518;51.776;9.370;2023-02-23T08:25:42;99986.22;;;9.42;92.52
61618;BME280;47518;51.776;9.370;2023-02-23T08:28:07;99986.75;;;9.38;92.61
61618;BME280;47518;51.776;9.370;2023-02-23T08:30:33;99987.72;;;9.53;92.15
61618;BME280;47518;51.776;9.370;2023-02-23T08:32:59;99986.28;;;9.65;91.81
61618;BME280;47518;51.776;9.370;2023-02-23T08:35:26;99986.09;;;9.67;91.51
61618;BME280;47518;51.776;9.370;2023-02-23T08:37:51;99981.81;;;9.72;91.87
61618;BME280;47518;51.776;9.370;2023-02-23T08:40:17;99983.81;;;9.78;90.26
61618;BME280;47518;51.776;9.370;2023-02-23T08:42:44;99987.31;;;9.64;91.22
61618;BME280;47518;51.776;9.370;2023-02-23T08:45:11;99988.97;;;9.73;91.75
61618;BME280;47518;51.776;9.370;2023-02-23T08:47:36;99984.66;;;9.79;91.46
61618;BME280;47518;51.776;9.370;2023-02-23T08:50:03;99981.81;;;9.72;91.52
61618;BME280;47518;51.776;9.370;2023-02-23T08:52:29;99989.13;;;9.94;90.87
61618;BME280;47518;51.776;9.370;2023-02-23T08:54:54;99982.16;;;10.00;89.40
61618;BME280;47518;51.776;9.370;2023-02-23T08:57:20;99986.69;;;10.08;89.69
61618;BME280;47518;51.776;9.370;2023-02-23T08:59:48;99987.69;;;10.07;90.14
61618;BME280;47518;51.776;9.370;2023-02-23T09:02:14;99985.28;;;10.12;90.38
61618;BME280;47518;51.776;9.370;2023-02-23T09:04:40;99989.13;;;10.17;90.00
61618;BME280;47518;51.776;9.370;2023-02-23T09:07:09;99986.00;;;10.29;89.72
61618;BME280;47518;51.776;9.370;2023-02-23T09:09:37;99987.78;;;10.21;90.69
61618;BME280;47518;51.776;9.370;2023-02-23T09:12:02;99987.53;;;10.31;91.03
61618;BME280;47518;51.776;9.370;2023-02-23T09:14:28;99999.72;;;10.35;90.29
61618;BME280;47518;51.776;9.370;2023-02-23T09:16:54;99983.56;;;10.57;88.99
61618;BME280;47518;51.776;9.370;2023-02-23T09:19:19;99990.31;;;10.61;89.23
61618;BME280;47518;51.776;9.370;2023-02-23T09:21:45;99994.25;;;10.58;88.32
61618;BME280;47518;51.776;9.370;2023-02-23T09:24:10;99995.56;;;10.62;87.90
61618;BME280;47518;51.776;9.370;2023-02-23T09:26:36;100001.66;;;10.64;87.54
61618;BME280;47518;51.776;9.370;2023-02-23T09:29:05;100001.19;;;10.61;87.74
61618;BME280;47518;51.776;9.370;2023-02-23T09:31:30;100003.91;;;10.61;87.82
61618;BME280;47518;51.776;9.370;2023-02-23T09:33:59;100002.19;;;10.45;88.71
61618;BME280;47518;51.776;9.370;2023-02-23T09:36:26;100003.81;;;10.54;87.89
61618;BME280;47518;51.776;9.370;2023-02-23T09:38:53;100004.56;;;10.63;87.54
61618;BME280;47518;51.776;9.370;2023-02-23T09:57:17;100001.91;;;10.77;87.92
61618;BME280;47518;51.776;9.370;2023-02-23T09:59:47;99995.31;;;10.87;87.74
61618;BME280;47518;51.776;9.370;2023-02-23T10:39:39;100019.75;;;10.57;89.07
61618;BME280;47518;51.776;9.370;2023-02-23T10:42:06;100019.50;;;10.67;89.20
61618;BME280;47518;51.776;9.370;2023-02-23T10:44:37;100017.19;;;10.78;88.60
61618;BME280;47518;51.776;9.370;2023-02-23T10:47:14;100014.34;;;10.87;88.95
61618;BME280;47518;51.776;9.370;2023-02-23T11:02:50;100022.28;;;11.26;87.68
61618;BME280;47518;51.776;9.370;2023-02-23T11:08:19;100016.06;;;11.47;85.52
61618;BME280;47518;51.776;9.370;2023-02-23T11:14:34;100002.25;;;11.33;86.12
61618;BME280;47518;51.776;9.370;2023-02-23T11:16:59;100009.22;;;11.36;86.31
61618;BME280;47518;51.776;9.370;2023-02-23T11:19:34;100007.34;;;11.36;86.04
61618;BME280;47518;51.776;9.370;2023-02-23T11:22:02;100005.91;;;11.40;85.91
61618;BME280;47518;51.776;9.370;2023-02-23T11:24:33;100004.25;;;11.25;86.24
61618;BME280;47518;51.776;9.370;2023-02-23T11:27:02;99997.28;;;11.22;86.29
61618;BME280;47518;51.776;9.370;2023-02-23T11:29:40;99993.56;;;11.23;86.97
61618;BME280;47518;51.776;9.370;2023-02-23T11:32:08;99994.09;;;11.33;86.69
61618;BME280;47518;51.776;9.370;2023-02-23T11:34:38;99999.84;;;11.24;86.78
61618;BME280;47518;51.776;9.370;2023-02-23T12:08:42;99979.47;;;11.20;87.18
61618;BME280;47518;51.776;9.370;2023-02-23T12:11:14;99976.50;;;11.15;87.04
61618;BME280;47518;51.776;9.370;2023-02-23T12:13:44;99972.72;;;11.16;87.89
61618;BME280;47518;51.776;9.370;2023-02-23T12:16:17;99970.28;;;11.06;88.17
61618;BME280;47518;51.776;9.370;2023-02-23T12:18:49;99972.09;;;11.14;87.92
61618;BME280;47518;51.776;9.370;2023-02-23T12:21:27;99980.59;;;10.96;89.07
61618;BME280;47518;51.776;9.370;2023-02-23T12:39:55;99960.63;;;11.03;89.37
61618;BME280;47518;51.776;9.370;2023-02-23T12:42:38;99967.94;;;10.88;89.35
61618;BME280;47518;51.776;9.370;2023-02-23T12:45:08;99967.38;;;10.93;89.52
61618;BME280;47518;51.776;9.370;2023-02-23T12:47:44;99963.75;;;11.00;89.77
61618;BME280;47518;51.776;9.370;2023-02-23T13:16:48;99961.56;;;11.10;88.78
61618;BME280;47518;51.776;9.370;2023-02-23T13:19:21;99962.03;;;10.99;88.35
61618;BME280;47518;51.776;9.370;2023-02-23T13:21:53;99965.44;;;11.01;89.90
61618;BME280;47518;51.776;9.370;2023-02-23T13:24:25;99968.59;;;10.75;90.18
61618;BME280;47518;51.776;9.370;2023-02-23T13:29:45;99973.63;;;10.64;90.33
61618;BME280;47518;51.776;9.370;2023-02-23T13:32:15;99972.81;;;10.26;90.53
61618;BME280;47518;51.776;9.370;2023-02-23T13:34:45;99971.75;;;10.49;89.99
61618;BME280;47518;51.776;9.370;2023-02-23T13:37:15;99974.22;;;10.74;89.81
61618;BME280;47518;51.776;9.370;2023-02-23T13:40:22;99972.72;;;10.71;89.53
61618;BME280;47518;51.776;9.370;2023-02-23T13:43:14;99970.66;;;10.88;88.71
61618;BME280;47518;51.776;9.370;2023-02-23T13:59:15;99969.22;;;10.63;88.74
61618;BME280;47518;51.776;9.370;2023-02-23T14:01:44;99965.19;;;10.59;88.67
61618;BME280;47518;51.776;9.370;2023-02-23T14:04:15;99969.97;;;10.42;89.02
61618;BME280;47518;51.776;9.370;2023-02-23T14:09:54;99972.19;;;10.38;90.41
61618;BME280;47518;51.776;9.370;2023-02-23T14:12:25;99973.84;;;10.16;90.16
61618;BME280;47518;51.776;9.370;2023-02-23T14:21:29;99971.75;;;10.04;90.38
61618;BME280;47518;51.776;9.370;2023-02-23T14:24:15;99966.22;;;10.20;89.43
61618;BME280;47518;51.776;9.370;2023-02-23T14:39:52;99980.72;;;10.50;88.58
61618;BME280;47518;51.776;9.370;2023-02-23T14:42:21;99987.09;;;10.42;89.60
61618;BME280;47518;51.776;9.370;2023-02-23T14:44:48;99985.41;;;10.41;88.92
61618;BME280;47518;51.776;9.370;2023-02-23T14:47:19;99994.31;;;10.50;88.50
61618;BME280;47518;51.776;9.370;2023-02-23T14:49:53;99986.38;;;10.26;88.66
61618;BME280;47518;51.776;9.370;2023-02-23T14:52:27;99985.06;;;10.21;89.18
61618;BME280;47518;51.776;9.370;2023-02-23T14:55:28;99982.44;;;10.28;89.53
61618;BME280;47518;51.776;9.370;2023-02-23T14:57:55;99981.75;;;10.34;89.02
61618;BME280;47518;51.776;9.370;2023-02-23T15:00:26;99987.44;;;10.39;88.89
61618;BME280;47518;51.776;9.370;2023-02-23T15:02:56;99994.47;;;10.34;89.62
61618;BME280;47518;51.776;9.370;2023-02-23T15:05:26;99985.53;;;10.02;91.33
61618;BME280;47518;51.776;9.370;2023-02-23T15:07:52;99995.59;;;9.93;89.63
61618;BME280;47518;51.776;9.370;2023-02-23T15:10:26;99995.25;;;9.97;90.27
61618;BME280;47518;51.776;9.370;2023-02-23T15:12:52;99986.59;;;9.93;89.94
61618;BME280;47518;51.776;9.370;2023-02-23T15:15:21;99989.44;;;9.77;89.69
61618;BME280;47518;51.776;9.370;2023-02-23T15:17:49;99989.13;;;9.94;90.00
61618;BME280;47518;51.776;9.370;2023-02-23T15:20:19;99989.09;;;10.03;89.16
61618;BME280;47518;51.776;9.370;2023-02-23T15:22:50;99988.59;;;9.99;88.79
61618;BME280;47518;51.776;9.370;2023-02-23T15:25:21;99995.50;;;10.10;89.01
61618;BME280;47518;51.776;9.370;2023-02-23T15:27:48;99996.00;;;10.05;88.92
61618;BME280;47518;51.776;9.370;2023-02-23T15:43:27;99995.81;;;9.61;89.28
61618;BME280;47518;51.776;9.370;2023-02-23T15:45:57;99997.81;;;9.67;89.67
61618;BME280;47518;51.776;9.370;2023-02-23T15:48:26;99995.16;;;9.82;89.11
61618;BME280;47518;51.776;9.370;2023-02-23T15:50:56;99994.44;;;9.88;89.46
61618;BME280;47518;51.776;9.370;2023-02-23T15:53:27;99995.72;;;10.00;88.20
61618;BME280;47518;51.776;9.370;2023-02-23T15:55:56;99995.34;;;10.03;88.93
61618;BME280;47518;51.776;9.370;2023-02-23T15:58:27;99999.47;;;9.99;89.56
61618;BME280;47518;51.776;9.370;2023-02-23T16:00:58;99991.06;;;9.86;89.47
61618;BME280;47518;51.776;9.370;2023-02-23T16:03:31;99995.25;;;9.97;88.88
61618;BME280;47518;51.776;9.370;2023-02-23T16:08:55;99997.09;;;9.73;89.48
61618;BME280;47518;51.776;9.370;2023-02-23T16:11:21;99987.81;;;9.59;89.70
61618;BME280;47518;51.776;9.370;2023-02-23T16:13:48;99987.75;;;9.76;89.19
61618;BME280;47518;51.776;9.370;2023-02-23T16:16:15;99990.13;;;9.71;89.06
61618;BME280;47518;51.776;9.370;2023-02-23T16:18:45;99995.03;;;9.75;89.68
61618;BME280;47518;51.776;9.370;2023-02-23T16:21:19;99995.94;;;9.68;88.88
61618;BME280;47518;51.776;9.370;2023-02-23T16:23:48;100007.41;;;9.78;88.87
61618;BME280;47518;51.776;9.370;2023-02-23T16:26:18;100003.44;;;9.57;89.48
61618;BME280;47518;51.776;9.370;2023-02-23T16:28:53;100001.41;;;9.28;88.77
61618;BME280;47518;51.776;9.370;2023-02-23T16:31:23;99997.00;;;9.19;89.15
61618;BME280;47518;51.776;9.370;2023-02-23T16:33:54;99994.66;;;9.16;88.87
61618;BME280;47518;51.776;9.370;2023-02-23T16:36:24;99995.81;;;9.22;90.15
61618;BME280;47518;51.776;9.370;2023-02-23T16:38:59;99992.13;;;9.15;90.17
61618;BME280;47518;51.776;9.370;2023-02-23T16:41:28;100005.16;;;9.19;89.48
61618;BME280;47518;51.776;9.370;2023-02-23T16:43:57;99999.16;;;9.32;88.53
61618;BME280;47518;51.776;9.370;2023-02-23T16:46:24;100002.03;;;9.39;88.93
61618;BME280;47518;51.776;9.370;2023-02-23T16:48:51;100000.31;;;9.38;87.62
61618;BME280;47518;51.776;9.370;2023-02-23T16:51:19;100000.31;;;9.38;88.54
61618;BME280;47518;51.776;9.370;2023-02-23T16:53:45;99996.53;;;9.16;88.81
61618;BME280;47518;51.776;9.370;2023-02-23T16:56:13;99997.00;;;9.27;87.85
61618;BME280;47518;51.776;9.370;2023-02-23T16:58:43;100003.19;;;9.36;88.52
61618;BME280;47518;51.776;9.370;2023-02-23T17:01:12;100003.47;;;9.18;89.59
61618;BME280;47518;51.776;9.370;2023-02-23T17:03:39;100007.66;;;9.29;89.29
61618;BME280;47518;51.776;9.370;2023-02-23T17:06:05;100001.19;;;9.38;88.94
61618;BME280;47518;51.776;9.370;2023-02-23T17:08:30;100016.19;;;9.10;89.00
61618;BME280;47518;51.776;9.370;2023-02-23T17:10:56;100014.97;;;9.28;88.79
61618;BME280;47518;51.776;9.370;2023-02-23T17:13:24;100008.31;;;9.31;89.92
61618;BME280;47518;51.776;9.370;2023-02-23T17:15:52;100011.81;;;9.48;88.92
61618;BME280;47518;51.776;9.370;2023-02-23T17:18:22;100007.09;;;9.42;88.35
61618;BME280;47518;51.776;9.370;2023-02-23T17:20:50;100009.56;;;9.20;89.35
61618;BME280;47518;51.776;9.370;2023-02-23T17:23:16;100006.84;;;9.12;89.28
61618;BME280;47518;51.776;9.370;2023-02-23T17:25:41;100010.41;;;9.21;89.73
61618;BME280;47518;51.776;9.370;2023-02-23T17:28:06;100013.94;;;9.29;89.95
61618;BME280;47518;51.776;9.370;2023-02-23T17:30:33;100020.50;;;9.35;89.68
61618;BME280;47518;51.776;9.370;2023-02-23T17:33:00;100016.09;;;9.34;89.84
61618;BME280;47518;51.776;9.370;2023-02-23T17:35:26;100019.75;;;9.18;90.53
61618;BME280;47518;51.776;9.370;2023-02-23T17:37:52;100026.25;;;8.93;90.39
61618;BME280;47518;51.776;9.370;2023-02-23T17:40:20;100023.06;;;8.81;90.86
61618;BME280;47518;51.776;9.370;2023-02-23T17:42:51;100026.94;;;8.87;89.94
61618;BME280;47518;51.776;9.370;2023-02-23T17:45:17;100022.88;;;8.74;90.57
61618;BME280;47518;51.776;9.370;2023-02-23T17:47:42;100020.88;;;8.44;90.16
61618;BME280;47518;51.776;9.370;2023-02-23T17:50:08;100022.75;;;8.60;90.53